sensor_id;sensor_type;location;lat;lon;timestamp;P1;durP1;ratioP1;P2;durP2;ratioP2
74538;SDS011;66042;51.090;-115.340;2023-03-14T00:02:17;21.80;;;7.60;;
74538;SDS011;66042;51.090;-115.340;2023-03-14T00:04:44;16.30;;;4.50;;
74538;SDS011;66042;51.090;-115.340;2023-03-14T00:07:12;4.80;;;1.30;;
74538;SDS011;66042;51.090;-115.340;2023-03-14T00:09:39;3.00;;;0.50;;
74538;SDS011;66042;51.090;-115.340;2023-03-14T00:12:06;1.50;;;0.40;;
74538;SDS011;66042;51.090;-115.340;2023-03-14T00:14:33;5.00;;;0.50;;
74538;SDS011;66042;51.090;-115.340;2023-03-14T00:17:01;2.60;;;0.70;;
74538;SDS011;66042;51.090;-115.340;2023-03-14T00:19:28;3.60;;;0.40;;
74538;SDS011;66042;51.090;-115.340;2023-03-14T00:21:55;2.00;;;0.50;;
74538;SDS011;66042;51.090;-115.340;2023-03-14T00:24:22;1.00;;;0.40;;
74538;SDS011;66042;51.090;-115.340;2023-03-14T00:26:49;4.60;;;1.40;;
74538;SDS011;66042;51.090;-115.340;2023-03-14T00:29:16;2.30;;;0.80;;
74538;SDS011;66042;51.090;-115.340;2023-03-14T00:31:43;2.00;;;0.50;;
74538;SDS011;66042;51.090;-115.340;2023-03-14T00:34:12;1.80;;;0.70;;
74538;SDS011;66042;51.090;-115.340;2023-03-14T00:36:39;9.70;;;3.40;;
74538;SDS011;66042;51.090;-115.340;2023-03-14T00:39:06;2.80;;;1.00;;
74538;SDS011;66042;51.090;-115.340;2023-03-14T00:41:33;4.40;;;0.80;;
74538;SDS011;66042;51.090;-115.340;2023-03-14T00:44:00;4.10;;;1.30;;
74538;SDS011;66042;51.090;-115.340;2023-03-14T00:46:27;1.70;;;0.70;;
74538;SDS011;66042;51.090;-115.340;2023-03-14T00:48:54;1.10;;;0.40;;
74538;SDS011;66042;51.090;-115.340;2023-03-14T00:51:21;1.30;;;0.40;;
74538;SDS011;66042;51.090;-115.340;2023-03-14T00:53:47;0.90;;;0.40;;
74538;SDS011;66042;51.090;-115.340;2023-03-14T00:56:15;2.10;;;0.40;;
74538;SDS011;66042;51.090;-115.340;2023-03-14T00:58:42;2.40;;;0.70;;
74538;SDS011;66042;51.090;-115.340;2023-03-14T01:01:15;6.20;;;3.20;;
74538;SDS011;66042;51.090;-115.340;2023-03-14T01:03:44;5.60;;;1.60;;
74538;SDS011;66042;51.090;-115.340;2023-03-14T01:06:17;2.70;;;1.30;;
74538;SDS011;66042;51.090;-115.340;2023-03-14T01:08:47;1.90;;;0.70;;
74538;SDS011;66042;51.090;-115.340;2023-03-14T01:11:28;2.00;;;0.60;;
74538;SDS011;66042;51.090;-115.340;2023-03-14T01:13:57;1.20;;;0.40;;
74538;SDS011;66042;51.090;-115.340;2023-03-14T01:16:30;1.10;;;0.50;;
74538;SDS011;66042;51.090;-115.340;2023-03-14T01:18:58;1.10;;;0.50;;
74538;SDS011;66042;51.090;-115.340;2023-03-14T01:21:28;1.90;;;0.70;;
74538;SDS011;66042;51.090;-115.340;2023-03-14T01:23:59;0.70;;;0.40;;
74538;SDS011;66042;51.090;-115.340;2023-03-14T01:26:29;1.60;;;0.50;;
74538;SDS011;66042;51.090;-115.340;2023-03-14T01:28:57;1.70;;;0.40;;
74538;SDS011;66042;51.090;-115.340;2023-03-14T01:31:25;1.30;;;0.60;;
74538;SDS011;66042;51.090;-115.340;2023-03-14T01:33:53;0.90;;;0.40;;
74538;SDS011;66042;51.090;-115.340;2023-03-14T01:36:20;1.60;;;0.60;;
74538;SDS011;66042;51.090;-115.340;2023-03-14T01:38:47;1.60;;;0.30;;
74538;SDS011;66042;51.090;-115.340;2023-03-14T01:41:17;1.50;;;0.40;;
74538;SDS011;66042;51.090;-115.340;2023-03-14T01:43:47;1.90;;;0.70;;
74538;SDS011;66042;51.090;-115.340;2023-03-14T01:51:42;1.20;;;0.40;;
74538;SDS011;66042;51.090;-115.340;2023-03-14T01:56:53;2.80;;;0.60;;
74538;SDS011;66042;51.090;-115.340;2023-03-14T01:59:24;2.80;;;0.50;;
74538;SDS011;66042;51.090;-115.340;2023-03-14T02:01:54;6.20;;;1.20;;
74538;SDS011;66042;51.090;-115.340;2023-03-14T02:04:28;5.20;;;1.10;;
74538;SDS011;66042;51.090;-115.340;2023-03-14T02:10:05;3.60;;;1.10;;
74538;SDS011;66042;51.090;-115.340;2023-03-14T02:12:34;3.80;;;1.30;;
74538;SDS011;66042;51.090;-115.340;2023-03-14T02:15:03;2.80;;;0.60;;
74538;SDS011;66042;51.090;-115.340;2023-03-14T02:17:30;1.50;;;0.60;;
74538;SDS011;66042;51.090;-115.340;2023-03-14T02:20:10;1.80;;;0.60;;
74538;SDS011;66042;51.090;-115.340;2023-03-14T02:22:52;2.10;;;0.70;;
74538;SDS011;66042;51.090;-115.340;2023-03-14T02:25:42;2.60;;;0.70;;
74538;SDS011;66042;51.090;-115.340;2023-03-14T02:28:16;2.00;;;0.60;;
74538;SDS011;66042;51.090;-115.340;2023-03-14T02:30:44;1.50;;;0.40;;
74538;SDS011;66042;51.090;-115.340;2023-03-14T02:33:14;1.40;;;0.60;;
74538;SDS011;66042;51.090;-115.340;2023-03-14T02:36:05;2.20;;;0.80;;
74538;SDS011;66042;51.090;-115.340;2023-03-14T02:38:51;1.30;;;0.40;;
74538;SDS011;66042;51.090;-115.340;2023-03-14T02:41:22;1.40;;;0.50;;
74538;SDS011;66042;51.090;-115.340;2023-03-14T02:43:49;3.20;;;0.50;;
74538;SDS011;66042;51.090;-115.340;2023-03-14T02:46:21;4.50;;;0.50;;
74538;SDS011;66042;51.090;-115.340;2023-03-14T02:48:53;3.50;;;0.60;;
74538;SDS011;66042;51.090;-115.340;2023-03-14T02:51:24;1.80;;;0.70;;
74538;SDS011;66042;51.090;-115.340;2023-03-14T02:53:53;1.40;;;0.40;;
74538;SDS011;66042;51.090;-115.340;2023-03-14T02:56:20;1.70;;;0.40;;
74538;SDS011;66042;51.090;-115.340;2023-03-14T02:58:47;2.90;;;0.70;;
74538;SDS011;66042;51.090;-115.340;2023-03-14T03:01:14;1.40;;;0.50;;
74538;SDS011;66042;51.090;-115.340;2023-03-14T03:03:41;1.80;;;0.70;;
74538;SDS011;66042;51.090;-115.340;2023-03-14T03:06:08;1.60;;;0.50;;
74538;SDS011;66042;51.090;-115.340;2023-03-14T03:08:35;1.40;;;0.60;;
74538;SDS011;66042;51.090;-115.340;2023-03-14T03:11:02;1.80;;;0.50;;
74538;SDS011;66042;51.090;-115.340;2023-03-14T03:13:30;2.30;;;1.20;;
74538;SDS011;66042;51.090;-115.340;2023-03-14T03:15:56;2.60;;;0.60;;
74538;SDS011;66042;51.090;-115.340;2023-03-14T03:18:23;2.10;;;0.50;;
74538;SDS011;66042;51.090;-115.340;2023-03-14T03:20:50;1.20;;;0.40;;
74538;SDS011;66042;51.090;-115.340;2023-03-14T03:23:17;2.00;;;0.70;;
74538;SDS011;66042;51.090;-115.340;2023-03-14T03:25:48;1.20;;;0.60;;
74538;SDS011;66042;51.090;-115.340;2023-03-14T03:28:17;2.20;;;0.60;;
74538;SDS011;66042;51.090;-115.340;2023-03-14T03:30:44;0.80;;;0.40;;
74538;SDS011;66042;51.090;-115.340;2023-03-14T03:33:12;1.60;;;0.60;;
74538;SDS011;66042;51.090;-115.340;2023-03-14T03:35:45;0.80;;;0.50;;
74538;SDS011;66042;51.090;-115.340;2023-03-14T03:38:14;1.30;;;0.60;;
74538;SDS011;66042;51.090;-115.340;2023-03-14T03:40:41;3.40;;;0.50;;
74538;SDS011;66042;51.090;-115.340;2023-03-14T03:43:08;1.00;;;0.50;;
74538;SDS011;66042;51.090;-115.340;2023-03-14T03:45:35;2.40;;;0.40;;
74538;SDS011;66042;51.090;-115.340;2023-03-14T03:48:02;1.80;;;0.60;;
74538;SDS011;66042;51.090;-115.340;2023-03-14T03:50:29;1.00;;;0.50;;
74538;SDS011;66042;51.090;-115.340;2023-03-14T03:52:56;2.20;;;0.80;;
74538;SDS011;66042;51.090;-115.340;2023-03-14T03:55:23;1.60;;;0.40;;
74538;SDS011;66042;51.090;-115.340;2023-03-14T03:57:51;1.00;;;0.50;;
74538;SDS011;66042;51.090;-115.340;2023-03-14T04:00:19;0.70;;;0.30;;
74538;SDS011;66042;51.090;-115.340;2023-03-14T04:02:46;1.20;;;0.50;;
74538;SDS011;66042;51.090;-115.340;2023-03-14T04:05:13;1.80;;;0.50;;
74538;SDS011;66042;51.090;-115.340;2023-03-14T04:07:40;0.90;;;0.50;;
74538;SDS011;66042;51.090;-115.340;2023-03-14T04:10:07;1.70;;;0.50;;
74538;SDS011;66042;51.090;-115.340;2023-03-14T04:12:35;1.30;;;0.50;;
74538;SDS011;66042;51.090;-115.340;2023-03-14T04:15:02;1.90;;;0.50;;
74538;SDS011;66042;51.090;-115.340;2023-03-14T04:17:29;4.20;;;0.90;;
74538;SDS011;66042;51.090;-115.340;2023-03-14T04:19:56;3.00;;;0.60;;
74538;SDS011;66042;51.090;-115.340;2023-03-14T04:22:23;3.70;;;1.00;;
74538;SDS011;66042;51.090;-115.340;2023-03-14T04:24:50;2.50;;;1.00;;
74538;SDS011;66042;51.090;-115.340;2023-03-14T04:27:17;2.10;;;0.70;;
74538;SDS011;66042;51.090;-115.340;2023-03-14T04:29:43;1.30;;;0.70;;
74538;SDS011;66042;51.090;-115.340;2023-03-14T04:32:10;2.30;;;0.60;;
74538;SDS011;66042;51.090;-115.340;2023-03-14T04:34:38;2.60;;;0.70;;
74538;SDS011;66042;51.090;-115.340;2023-03-14T04:37:05;2.20;;;0.90;;
74538;SDS011;66042;51.090;-115.340;2023-03-14T04:39:32;2.60;;;1.00;;
74538;SDS011;66042;51.090;-115.340;2023-03-14T04:41:59;5.00;;;0.80;;
74538;SDS011;66042;51.090;-115.340;2023-03-14T04:44:27;2.60;;;0.90;;
74538;SDS011;66042;51.090;-115.340;2023-03-14T04:46:54;3.90;;;1.20;;
74538;SDS011;66042;51.090;-115.340;2023-03-14T04:49:21;4.10;;;0.70;;
74538;SDS011;66042;51.090;-115.340;2023-03-14T04:51:48;2.70;;;0.80;;
74538;SDS011;66042;51.090;-115.340;2023-03-14T04:54:17;4.00;;;1.00;;
74538;SDS011;66042;51.090;-115.340;2023-03-14T04:56:44;4.60;;;0.80;;
74538;SDS011;66042;51.090;-115.340;2023-03-14T04:59:11;1.40;;;0.60;;
74538;SDS011;66042;51.090;-115.340;2023-03-14T05:01:38;3.90;;;0.60;;
74538;SDS011;66042;51.090;-115.340;2023-03-14T05:04:05;2.00;;;0.70;;
74538;SDS011;66042;51.090;-115.340;2023-03-14T05:06:32;2.90;;;0.70;;
74538;SDS011;66042;51.090;-115.340;2023-03-14T05:08:59;2.00;;;0.60;;
74538;SDS011;66042;51.090;-115.340;2023-03-14T05:11:26;3.40;;;0.60;;
74538;SDS011;66042;51.090;-115.340;2023-03-14T05:13:54;1.80;;;0.60;;
74538;SDS011;66042;51.090;-115.340;2023-03-14T05:16:21;1.90;;;1.00;;
74538;SDS011;66042;51.090;-115.340;2023-03-14T05:18:48;1.40;;;0.70;;
74538;SDS011;66042;51.090;-115.340;2023-03-14T05:21:14;1.30;;;0.60;;
74538;SDS011;66042;51.090;-115.340;2023-03-14T05:23:41;1.60;;;0.50;;
74538;SDS011;66042;51.090;-115.340;2023-03-14T05:26:08;2.20;;;0.60;;
74538;SDS011;66042;51.090;-115.340;2023-03-14T05:28:35;3.50;;;0.50;;
74538;SDS011;66042;51.090;-115.340;2023-03-14T05:31:06;1.30;;;0.50;;
74538;SDS011;66042;51.090;-115.340;2023-03-14T05:33:34;2.00;;;0.40;;
74538;SDS011;66042;51.090;-115.340;2023-03-14T05:36:01;0.90;;;0.40;;
74538;SDS011;66042;51.090;-115.340;2023-03-14T05:38:28;0.90;;;0.50;;
74538;SDS011;66042;51.090;-115.340;2023-03-14T05:40:56;1.20;;;0.70;;
74538;SDS011;66042;51.090;-115.340;2023-03-14T05:43:23;1.10;;;0.70;;
74538;SDS011;66042;51.090;-115.340;2023-03-14T05:45:50;1.90;;;0.50;;
74538;SDS011;66042;51.090;-115.340;2023-03-14T05:48:16;2.90;;;0.50;;
74538;SDS011;66042;51.090;-115.340;2023-03-14T05:50:44;2.20;;;0.50;;
74538;SDS011;66042;51.090;-115.340;2023-03-14T05:53:11;1.60;;;0.80;;
74538;SDS011;66042;51.090;-115.340;2023-03-14T05:55:39;2.20;;;0.80;;
74538;SDS011;66042;51.090;-115.340;2023-03-14T05:58:06;3.90;;;0.60;;
74538;SDS011;66042;51.090;-115.340;2023-03-14T06:00:34;1.90;;;1.10;;
74538;SDS011;66042;51.090;-115.340;2023-03-14T06:03:01;1.70;;;0.50;;
74538;SDS011;66042;51.090;-115.340;2023-03-14T06:05:28;1.90;;;0.70;;
74538;SDS011;66042;51.090;-115.340;2023-03-14T06:07:55;1.30;;;0.50;;
74538;SDS011;66042;51.090;-115.340;2023-03-14T06:10:22;3.30;;;0.70;;
74538;SDS011;66042;51.090;-115.340;2023-03-14T06:12:49;1.00;;;0.60;;
74538;SDS011;66042;51.090;-115.340;2023-03-14T06:15:16;1.60;;;0.40;;
74538;SDS011;66042;51.090;-115.340;2023-03-14T06:17:42;1.50;;;0.70;;
74538;SDS011;66042;51.090;-115.340;2023-03-14T06:20:10;1.10;;;0.60;;
74538;SDS011;66042;51.090;-115.340;2023-03-14T06:22:37;1.50;;;0.60;;
74538;SDS011;66042;51.090;-115.340;2023-03-14T06:25:07;3.40;;;0.80;;
74538;SDS011;66042;51.090;-115.340;2023-03-14T06:27:34;1.70;;;0.60;;
74538;SDS011;66042;51.090;-115.340;2023-03-14T06:30:02;1.20;;;0.60;;
74538;SDS011;66042;51.090;-115.340;2023-03-14T06:32:29;1.00;;;0.60;;
74538;SDS011;66042;51.090;-115.340;2023-03-14T06:34:56;1.10;;;0.50;;
74538;SDS011;66042;51.090;-115.340;2023-03-14T06:37:28;0.90;;;0.60;;
74538;SDS011;66042;51.090;-115.340;2023-03-14T06:39:55;1.30;;;0.70;;
74538;SDS011;66042;51.090;-115.340;2023-03-14T06:42:22;2.20;;;0.50;;
74538;SDS011;66042;51.090;-115.340;2023-03-14T06:44:49;1.00;;;0.60;;
74538;SDS011;66042;51.090;-115.340;2023-03-14T06:47:16;0.60;;;0.30;;
74538;SDS011;66042;51.090;-115.340;2023-03-14T06:49:43;0.90;;;0.50;;
74538;SDS011;66042;51.090;-115.340;2023-03-14T06:52:11;1.00;;;0.40;;
74538;SDS011;66042;51.090;-115.340;2023-03-14T06:54:38;0.70;;;0.30;;
74538;SDS011;66042;51.090;-115.340;2023-03-14T06:57:05;0.70;;;0.40;;
74538;SDS011;66042;51.090;-115.340;2023-03-14T06:59:32;0.90;;;0.40;;
74538;SDS011;66042;51.090;-115.340;2023-03-14T07:01:59;1.50;;;0.50;;
74538;SDS011;66042;51.090;-115.340;2023-03-14T07:04:26;1.00;;;0.30;;
74538;SDS011;66042;51.090;-115.340;2023-03-14T07:06:53;0.80;;;0.50;;
74538;SDS011;66042;51.090;-115.340;2023-03-14T07:09:21;0.80;;;0.50;;
74538;SDS011;66042;51.090;-115.340;2023-03-14T07:11:48;0.70;;;0.40;;
74538;SDS011;66042;51.090;-115.340;2023-03-14T07:14:15;0.80;;;0.50;;
74538;SDS011;66042;51.090;-115.340;2023-03-14T07:16:42;0.80;;;0.50;;
74538;SDS011;66042;51.090;-115.340;2023-03-14T07:19:09;1.20;;;0.50;;
74538;SDS011;66042;51.090;-115.340;2023-03-14T07:21:37;0.70;;;0.40;;
74538;SDS011;66042;51.090;-115.340;2023-03-14T07:24:04;0.90;;;0.40;;
74538;SDS011;66042;51.090;-115.340;2023-03-14T07:26:31;1.20;;;0.30;;
74538;SDS011;66042;51.090;-115.340;2023-03-14T07:28:58;0.80;;;0.40;;
74538;SDS011;66042;51.090;-115.340;2023-03-14T07:31:25;0.80;;;0.40;;
74538;SDS011;66042;51.090;-115.340;2023-03-14T07:33:52;0.80;;;0.50;;
74538;SDS011;66042;51.090;-115.340;2023-03-14T07:36:19;2.30;;;0.30;;
74538;SDS011;66042;51.090;-115.340;2023-03-14T07:38:47;0.70;;;0.40;;
74538;SDS011;66042;51.090;-115.340;2023-03-14T07:41:14;0.70;;;0.40;;
74538;SDS011;66042;51.090;-115.340;2023-03-14T07:43:41;1.10;;;0.60;;
74538;SDS011;66042;51.090;-115.340;2023-03-14T07:46:08;1.30;;;0.60;;
74538;SDS011;66042;51.090;-115.340;2023-03-14T07:48:35;0.80;;;0.50;;
74538;SDS011;66042;51.090;-115.340;2023-03-14T07:51:03;0.90;;;0.40;;
74538;SDS011;66042;51.090;-115.340;2023-03-14T07:53:30;0.90;;;0.60;;
74538;SDS011;66042;51.090;-115.340;2023-03-14T07:55:57;0.90;;;0.60;;
74538;SDS011;66042;51.090;-115.340;2023-03-14T07:58:24;1.00;;;0.60;;
74538;SDS011;66042;51.090;-115.340;2023-03-14T08:00:52;0.80;;;0.50;;
74538;SDS011;66042;51.090;-115.340;2023-03-14T08:03:19;1.10;;;0.40;;
74538;SDS011;66042;51.090;-115.340;2023-03-14T08:05:49;0.80;;;0.50;;
74538;SDS011;66042;51.090;-115.340;2023-03-14T08:08:18;1.00;;;0.80;;
74538;SDS011;66042;51.090;-115.340;2023-03-14T08:10:45;0.80;;;0.60;;
74538;SDS011;66042;51.090;-115.340;2023-03-14T08:13:12;1.00;;;0.80;;
74538;SDS011;66042;51.090;-115.340;2023-03-14T08:15:40;1.30;;;0.40;;
74538;SDS011;66042;51.090;-115.340;2023-03-14T08:18:07;0.70;;;0.50;;
74538;SDS011;66042;51.090;-115.340;2023-03-14T08:20:35;1.00;;;0.60;;
74538;SDS011;66042;51.090;-115.340;2023-03-14T08:23:03;0.80;;;0.50;;
74538;SDS011;66042;51.090;-115.340;2023-03-14T08:25:30;0.80;;;0.50;;
74538;SDS011;66042;51.090;-115.340;2023-03-14T08:27:58;2.10;;;0.50;;
74538;SDS011;66042;51.090;-115.340;2023-03-14T08:30:25;1.20;;;0.40;;
74538;SDS011;66042;51.090;-115.340;2023-03-14T08:32:52;7.30;;;3.10;;
74538;SDS011;66042;51.090;-115.340;2023-03-14T08:35:19;8.60;;;3.80;;
74538;SDS011;66042;51.090;-115.340;2023-03-14T08:37:46;11.80;;;4.60;;
74538;SDS011;66042;51.090;-115.340;2023-03-14T08:40:13;11.20;;;4.40;;
74538;SDS011;66042;51.090;-115.340;2023-03-14T08:42:43;9.70;;;4.20;;
74538;SDS011;66042;51.090;-115.340;2023-03-14T08:45:12;12.10;;;4.40;;
74538;SDS011;66042;51.090;-115.340;2023-03-14T08:47:41;11.60;;;4.60;;
74538;SDS011;66042;51.090;-115.340;2023-03-14T08:50:08;12.20;;;4.60;;
74538;SDS011;66042;51.090;-115.340;2023-03-14T08:52:36;9.80;;;5.10;;
74538;SDS011;66042;51.090;-115.340;2023-03-14T08:55:08;10.20;;;4.70;;
74538;SDS011;66042;51.090;-115.340;2023-03-14T08:57:35;10.50;;;5.10;;
74538;SDS011;66042;51.090;-115.340;2023-03-14T09:00:04;9.90;;;4.20;;
74538;SDS011;66042;51.090;-115.340;2023-03-14T09:02:37;10.50;;;5.30;;
74538;SDS011;66042;51.090;-115.340;2023-03-14T09:05:05;11.50;;;4.60;;
74538;SDS011;66042;51.090;-115.340;2023-03-14T09:07:32;12.80;;;4.90;;
74538;SDS011;66042;51.090;-115.340;2023-03-14T09:10:00;11.50;;;5.30;;
74538;SDS011;66042;51.090;-115.340;2023-03-14T09:12:26;9.70;;;4.20;;
74538;SDS011;66042;51.090;-115.340;2023-03-14T09:14:53;9.90;;;3.50;;
74538;SDS011;66042;51.090;-115.340;2023-03-14T09:17:20;7.50;;;3.40;;
74538;SDS011;66042;51.090;-115.340;2023-03-14T09:19:48;6.80;;;2.90;;
74538;SDS011;66042;51.090;-115.340;2023-03-14T09:22:15;11.00;;;4.90;;
74538;SDS011;66042;51.090;-115.340;2023-03-14T09:24:42;8.00;;;4.20;;
74538;SDS011;66042;51.090;-115.340;2023-03-14T09:27:09;12.30;;;5.40;;
74538;SDS011;66042;51.090;-115.340;2023-03-14T09:29:35;9.50;;;4.10;;
74538;SDS011;66042;51.090;-115.340;2023-03-14T09:32:02;10.20;;;4.60;;
74538;SDS011;66042;51.090;-115.340;2023-03-14T09:34:30;9.00;;;4.60;;
74538;SDS011;66042;51.090;-115.340;2023-03-14T09:36:57;8.10;;;4.00;;
74538;SDS011;66042;51.090;-115.340;2023-03-14T09:39:24;10.30;;;4.00;;
74538;SDS011;66042;51.090;-115.340;2023-03-14T09:41:52;10.30;;;4.00;;
74538;SDS011;66042;51.090;-115.340;2023-03-14T09:44:28;9.70;;;4.40;;
74538;SDS011;66042;51.090;-115.340;2023-03-14T09:47:06;9.00;;;4.40;;
74538;SDS011;66042;51.090;-115.340;2023-03-14T09:49:39;13.90;;;5.30;;
74538;SDS011;66042;51.090;-115.340;2023-03-14T09:52:17;11.20;;;5.10;;
74538;SDS011;66042;51.090;-115.340;2023-03-14T09:55:03;12.20;;;4.50;;
74538;SDS011;66042;51.090;-115.340;2023-03-14T09:57:35;11.80;;;4.80;;
74538;SDS011;66042;51.090;-115.340;2023-03-14T10:00:06;11.30;;;4.80;;
74538;SDS011;66042;51.090;-115.340;2023-03-14T10:02:42;15.20;;;5.70;;
74538;SDS011;66042;51.090;-115.340;2023-03-14T10:05:20;12.50;;;5.00;;
74538;SDS011;66042;51.090;-115.340;2023-03-14T10:07:49;13.40;;;6.30;;
74538;SDS011;66042;51.090;-115.340;2023-03-14T10:10:18;14.50;;;5.70;;
74538;SDS011;66042;51.090;-115.340;2023-03-14T10:12:59;16.00;;;7.50;;
74538;SDS011;66042;51.090;-115.340;2023-03-14T10:15:35;14.40;;;6.50;;
74538;SDS011;66042;51.090;-115.340;2023-03-14T10:18:04;17.60;;;8.50;;
74538;SDS011;66042;51.090;-115.340;2023-03-14T10:20:45;18.90;;;8.10;;
74538;SDS011;66042;51.090;-115.340;2023-03-14T10:25:44;19.00;;;8.70;;
74538;SDS011;66042;51.090;-115.340;2023-03-14T10:31:05;13.70;;;5.30;;
74538;SDS011;66042;51.090;-115.340;2023-03-14T10:33:35;13.30;;;6.10;;
74538;SDS011;66042;51.090;-115.340;2023-03-14T10:36:40;12.50;;;6.80;;
74538;SDS011;66042;51.090;-115.340;2023-03-14T10:42:39;14.20;;;6.70;;
74538;SDS011;66042;51.090;-115.340;2023-03-14T10:45:03;13.40;;;7.00;;
74538;SDS011;66042;51.090;-115.340;2023-03-14T10:47:34;12.70;;;6.40;;
74538;SDS011;66042;51.090;-115.340;2023-03-14T10:50:25;15.80;;;6.30;;
74538;SDS011;66042;51.090;-115.340;2023-03-14T10:52:55;14.90;;;7.00;;
74538;SDS011;66042;51.090;-115.340;2023-03-14T10:55:26;12.10;;;5.90;;
74538;SDS011;66042;51.090;-115.340;2023-03-14T10:57:53;12.30;;;5.50;;
74538;SDS011;66042;51.090;-115.340;2023-03-14T11:00:22;13.10;;;5.90;;
74538;SDS011;66042;51.090;-115.340;2023-03-14T11:11:29;14.40;;;5.50;;
74538;SDS011;66042;51.090;-115.340;2023-03-14T11:20:32;19.00;;;7.60;;
74538;SDS011;66042;51.090;-115.340;2023-03-14T11:23:14;17.60;;;8.30;;
74538;SDS011;66042;51.090;-115.340;2023-03-14T11:26:09;17.10;;;7.20;;
74538;SDS011;66042;51.090;-115.340;2023-03-14T11:28:41;18.10;;;8.40;;
74538;SDS011;66042;51.090;-115.340;2023-03-14T11:31:28;18.00;;;7.60;;
74538;SDS011;66042;51.090;-115.340;2023-03-14T11:34:17;19.40;;;6.70;;
74538;SDS011;66042;51.090;-115.340;2023-03-14T11:39:41;10.80;;;4.60;;
74538;SDS011;66042;51.090;-115.340;2023-03-14T11:42:17;6.60;;;3.40;;
74538;SDS011;66042;51.090;-115.340;2023-03-14T11:44:47;12.00;;;4.70;;
74538;SDS011;66042;51.090;-115.340;2023-03-14T11:49:58;12.80;;;5.60;;
74538;SDS011;66042;51.090;-115.340;2023-03-14T11:52:48;11.00;;;4.40;;
74538;SDS011;66042;51.090;-115.340;2023-03-14T11:55:40;13.70;;;5.30;;
74538;SDS011;66042;51.090;-115.340;2023-03-14T11:58:50;12.50;;;5.50;;
74538;SDS011;66042;51.090;-115.340;2023-03-14T12:01:23;8.80;;;4.20;;
74538;SDS011;66042;51.090;-115.340;2023-03-14T12:04:15;11.70;;;5.40;;
74538;SDS011;66042;51.090;-115.340;2023-03-14T12:06:55;8.40;;;4.10;;
74538;SDS011;66042;51.090;-115.340;2023-03-14T12:09:23;11.50;;;4.70;;
74538;SDS011;66042;51.090;-115.340;2023-03-14T12:11:57;9.00;;;4.10;;
74538;SDS011;66042;51.090;-115.340;2023-03-14T12:17:13;9.70;;;5.40;;
74538;SDS011;66042;51.090;-115.340;2023-03-14T12:19:47;11.40;;;5.40;;
74538;SDS011;66042;51.090;-115.340;2023-03-14T12:22:29;14.60;;;5.40;;
74538;SDS011;66042;51.090;-115.340;2023-03-14T12:30:33;10.50;;;5.20;;
74538;SDS011;66042;51.090;-115.340;2023-03-14T12:35:57;6.00;;;2.70;;
74538;SDS011;66042;51.090;-115.340;2023-03-14T12:41:36;6.50;;;2.80;;
74538;SDS011;66042;51.090;-115.340;2023-03-14T12:46:59;7.80;;;3.20;;
74538;SDS011;66042;51.090;-115.340;2023-03-14T12:49:41;12.40;;;3.50;;
74538;SDS011;66042;51.090;-115.340;2023-03-14T12:52:15;7.40;;;2.60;;
74538;SDS011;66042;51.090;-115.340;2023-03-14T12:54:54;9.40;;;3.10;;
74538;SDS011;66042;51.090;-115.340;2023-03-14T13:00:42;7.80;;;3.00;;
74538;SDS011;66042;51.090;-115.340;2023-03-14T13:05:58;8.70;;;3.40;;
74538;SDS011;66042;51.090;-115.340;2023-03-14T13:11:18;8.00;;;3.70;;
74538;SDS011;66042;51.090;-115.340;2023-03-14T13:13:57;7.30;;;2.60;;
74538;SDS011;66042;51.090;-115.340;2023-03-14T13:16:25;10.90;;;3.30;;
74538;SDS011;66042;51.090;-115.340;2023-03-14T13:19:03;8.60;;;3.20;;
74538;SDS011;66042;51.090;-115.340;2023-03-14T13:21:40;9.70;;;3.50;;
74538;SDS011;66042;51.090;-115.340;2023-03-14T13:24:28;9.20;;;4.40;;
74538;SDS011;66042;51.090;-115.340;2023-03-14T13:26:57;12.20;;;4.30;;
74538;SDS011;66042;51.090;-115.340;2023-03-14T13:29:31;11.00;;;4.20;;
74538;SDS011;66042;51.090;-115.340;2023-03-14T13:32:01;11.10;;;3.80;;
74538;SDS011;66042;51.090;-115.340;2023-03-14T13:34:40;7.80;;;4.20;;
74538;SDS011;66042;51.090;-115.340;2023-03-14T13:37:19;6.80;;;3.00;;
74538;SDS011;66042;51.090;-115.340;2023-03-14T13:39:57;5.40;;;2.10;;
74538;SDS011;66042;51.090;-115.340;2023-03-14T13:42:29;5.20;;;2.30;;
74538;SDS011;66042;51.090;-115.340;2023-03-14T13:44:56;4.80;;;2.30;;
74538;SDS011;66042;51.090;-115.340;2023-03-14T13:47:25;5.80;;;2.40;;
74538;SDS011;66042;51.090;-115.340;2023-03-14T13:49:52;4.80;;;2.40;;
74538;SDS011;66042;51.090;-115.340;2023-03-14T13:52:30;6.50;;;2.40;;
74538;SDS011;66042;51.090;-115.340;2023-03-14T13:55:03;4.10;;;1.50;;
74538;SDS011;66042;51.090;-115.340;2023-03-14T13:57:50;9.30;;;2.50;;
74538;SDS011;66042;51.090;-115.340;2023-03-14T14:00:24;7.10;;;2.50;;
74538;SDS011;66042;51.090;-115.340;2023-03-14T14:02:58;4.10;;;2.40;;
74538;SDS011;66042;51.090;-115.340;2023-03-14T14:05:27;6.90;;;2.40;;
74538;SDS011;66042;51.090;-115.340;2023-03-14T14:07:55;2.00;;;1.10;;
74538;SDS011;66042;51.090;-115.340;2023-03-14T14:10:22;2.00;;;0.70;;
74538;SDS011;66042;51.090;-115.340;2023-03-14T14:13:02;1.30;;;1.00;;
74538;SDS011;66042;51.090;-115.340;2023-03-14T14:15:32;1.10;;;0.70;;
74538;SDS011;66042;51.090;-115.340;2023-03-14T14:18:09;7.70;;;1.10;;
74538;SDS011;66042;51.090;-115.340;2023-03-14T14:20:44;1.10;;;0.40;;
74538;SDS011;66042;51.090;-115.340;2023-03-14T14:23:24;1.10;;;0.50;;
74538;SDS011;66042;51.090;-115.340;2023-03-14T14:25:56;2.30;;;1.00;;
74538;SDS011;66042;51.090;-115.340;2023-03-14T14:28:33;1.40;;;0.80;;
74538;SDS011;66042;51.090;-115.340;2023-03-14T14:31:05;2.00;;;0.70;;
74538;SDS011;66042;51.090;-115.340;2023-03-14T14:33:44;2.40;;;1.20;;
74538;SDS011;66042;51.090;-115.340;2023-03-14T14:36:24;2.10;;;0.80;;
74538;SDS011;66042;51.090;-115.340;2023-03-14T14:39:00;2.70;;;1.00;;
74538;SDS011;66042;51.090;-115.340;2023-03-14T14:41:39;3.50;;;1.40;;
74538;SDS011;66042;51.090;-115.340;2023-03-14T14:44:12;3.60;;;1.50;;
74538;SDS011;66042;51.090;-115.340;2023-03-14T14:46:43;3.40;;;1.20;;
74538;SDS011;66042;51.090;-115.340;2023-03-14T14:49:13;2.70;;;1.20;;
74538;SDS011;66042;51.090;-115.340;2023-03-14T14:51:51;3.20;;;1.40;;
74538;SDS011;66042;51.090;-115.340;2023-03-14T14:54:47;3.20;;;1.20;;
74538;SDS011;66042;51.090;-115.340;2023-03-14T14:57:33;6.10;;;1.30;;
74538;SDS011;66042;51.090;-115.340;2023-03-14T15:00:08;2.00;;;1.00;;
74538;SDS011;66042;51.090;-115.340;2023-03-14T15:02:47;2.90;;;1.00;;
74538;SDS011;66042;51.090;-115.340;2023-03-14T15:05:26;3.00;;;1.50;;
74538;SDS011;66042;51.090;-115.340;2023-03-14T15:07:57;2.70;;;1.30;;
74538;SDS011;66042;51.090;-115.340;2023-03-14T15:10:25;4.20;;;1.50;;
74538;SDS011;66042;51.090;-115.340;2023-03-14T15:12:52;5.60;;;1.10;;
74538;SDS011;66042;51.090;-115.340;2023-03-14T15:15:19;3.10;;;1.20;;
74538;SDS011;66042;51.090;-115.340;2023-03-14T15:17:47;5.20;;;1.50;;
74538;SDS011;66042;51.090;-115.340;2023-03-14T15:20:16;4.00;;;1.80;;
74538;SDS011;66042;51.090;-115.340;2023-03-14T15:22:45;7.30;;;1.50;;
74538;SDS011;66042;51.090;-115.340;2023-03-14T15:25:14;5.90;;;2.00;;
74538;SDS011;66042;51.090;-115.340;2023-03-14T15:27:41;6.30;;;1.80;;
74538;SDS011;66042;51.090;-115.340;2023-03-14T15:30:15;5.20;;;2.40;;
74538;SDS011;66042;51.090;-115.340;2023-03-14T15:32:43;5.80;;;2.60;;